createdAt,value
2016-11-18T00:00:49.039Z,0
2016-11-18T00:01:57.667Z,0
2016-11-18T00:03:07.113Z,0
2016-11-18T00:04:15.721Z,0
2016-11-18T00:05:24.658Z,0
2016-11-18T00:06:33.607Z,0
2016-11-18T00:07:42.230Z,0
2016-11-18T00:08:51.524Z,0
2016-11-18T00:10:00.466Z,0
2016-11-18T00:11:09.077Z,0
2016-11-18T00:12:18.012Z,0
2016-11-18T00:13:26.948Z,0
2016-11-18T00:14:36.237Z,0
2016-11-18T00:15:45.181Z,0
2016-11-18T00:16:54.760Z,0
2016-11-18T00:18:04.025Z,0
2016-11-18T00:19:12.672Z,0
2016-11-18T00:20:22.612Z,0
2016-11-18T00:21:31.219Z,0
2016-11-18T00:22:40.156Z,0
2016-11-18T00:23:48.764Z,0
2016-11-18T00:24:58.032Z,0
2016-11-18T00:26:06.746Z,0
2016-11-18T00:27:16.017Z,0
2016-11-18T00:28:25.280Z,0
2016-11-18T00:29:34.217Z,0
2016-11-18T00:30:43.141Z,0
2016-11-18T00:31:52.444Z,0
2016-11-18T00:33:01.374Z,0
2016-11-18T00:34:10.318Z,0
2016-11-18T00:35:19.578Z,0
2016-11-18T00:36:28.213Z,0
2016-11-18T00:37:37.251Z,0
2016-11-18T00:38:46.198Z,0
2016-11-18T00:39:54.827Z,0
2016-11-18T00:41:03.429Z,0
2016-11-18T00:42:13.021Z,0
2016-11-18T00:43:21.702Z,0
2016-11-18T00:44:30.994Z,0
2016-11-18T00:45:39.936Z,0
2016-11-18T00:46:48.874Z,0
2016-11-18T00:47:57.489Z,0
2016-11-18T00:49:06.777Z,0
2016-11-18T00:50:15.703Z,0
2016-11-18T00:51:24.318Z,0
2016-11-18T00:52:33.243Z,0
2016-11-18T00:53:42.179Z,0
2016-11-18T00:54:51.532Z,0
2016-11-18T00:56:00.139Z,0
2016-11-18T00:57:08.765Z,0
2016-11-18T00:58:17.749Z,0
2016-11-18T00:59:26.689Z,0
2016-11-18T01:00:36.297Z,0
2016-11-18T01:01:45.580Z,0
2016-11-18T01:02:54.847Z,0
2016-11-18T01:04:03.787Z,0
2016-11-18T01:05:12.730Z,0
2016-11-18T01:06:22.033Z,0
2016-11-18T01:07:30.969Z,0
2016-11-18T01:08:40.226Z,0
2016-11-18T01:09:48.844Z,0
2016-11-18T01:10:57.776Z,0
2016-11-18T01:12:06.494Z,0
2016-11-18T01:13:15.750Z,0
2016-11-18T01:14:25.019Z,0
2016-11-18T01:15:33.638Z,0
2016-11-18T01:16:42.593Z,0
2016-11-18T01:17:51.880Z,0
2016-11-18T01:19:00.514Z,0
2016-11-18T01:20:09.443Z,0
2016-11-18T01:21:18.373Z,0
2016-11-18T01:22:27.628Z,0
2016-11-18T01:23:36.683Z,0
2016-11-18T01:24:46.285Z,0
2016-11-18T01:25:54.895Z,0
2016-11-18T01:27:03.514Z,0
2016-11-18T01:28:12.132Z,0
2016-11-18T01:29:21.100Z,0
2016-11-18T01:30:29.757Z,0
2016-11-18T01:31:38.378Z,0
2016-11-18T01:32:47.651Z,0
2016-11-18T01:33:56.592Z,0
2016-11-18T01:35:05.314Z,0
2016-11-18T01:36:14.256Z,0
2016-11-18T01:37:23.193Z,0
2016-11-18T01:38:32.453Z,0
2016-11-18T01:39:41.392Z,0
2016-11-18T01:40:50.349Z,0
2016-11-18T01:41:59.302Z,0
2016-11-18T01:43:08.573Z,0
2016-11-18T01:44:17.193Z,0
2016-11-18T01:45:26.122Z,0
2016-11-18T01:46:35.542Z,0
2016-11-18T01:47:44.489Z,0
2016-11-18T01:48:53.763Z,0
2016-11-18T01:50:02.709Z,0
2016-11-18T01:51:11.653Z,0
2016-11-18T01:52:20.936Z,0
2016-11-18T01:53:29.867Z,0
2016-11-18T01:54:39.124Z,0
2016-11-18T01:55:48.055Z,0
2016-11-18T01:56:56.673Z,0
2016-11-18T01:58:05.337Z,0
2016-11-18T01:59:14.275Z,0
2016-11-18T02:00:23.225Z,0
2016-11-18T02:01:31.878Z,0
2016-11-18T02:02:41.474Z,0
2016-11-18T02:03:50.850Z,0
2016-11-18T02:04:59.816Z,0
2016-11-18T02:06:09.073Z,0
2016-11-18T02:07:18.348Z,0
2016-11-18T02:08:27.303Z,0
2016-11-18T02:09:36.688Z,0
2016-11-18T02:10:45.646Z,0
2016-11-18T02:11:54.598Z,0
2016-11-18T02:13:03.211Z,0
2016-11-18T02:14:12.160Z,0
2016-11-18T02:15:21.539Z,0
2016-11-18T02:16:30.163Z,0
2016-11-18T02:17:39.123Z,0
2016-11-18T02:18:48.073Z,0
2016-11-18T02:19:56.695Z,0
2016-11-18T02:21:05.422Z,0
2016-11-18T02:22:14.027Z,0
2016-11-18T02:23:22.639Z,0
2016-11-18T02:24:31.583Z,0
2016-11-18T02:25:40.889Z,0
2016-11-18T02:26:49.855Z,0
2016-11-18T02:27:59.151Z,0
2016-11-18T02:29:08.420Z,0
2016-11-18T02:30:17.058Z,0
2016-11-18T02:31:25.993Z,0
2016-11-18T02:32:34.970Z,0
2016-11-18T02:33:44.260Z,0
2016-11-18T02:34:53.195Z,0
2016-11-18T02:36:02.460Z,0
2016-11-18T02:37:11.400Z,0
2016-11-18T02:38:20.803Z,0
2016-11-18T02:39:29.412Z,0
2016-11-18T02:40:39.323Z,0
2016-11-18T02:41:48.249Z,0
2016-11-18T02:42:57.188Z,0
2016-11-18T02:44:06.847Z,0
2016-11-18T02:45:15.790Z,0
2016-11-18T02:46:24.408Z,0
2016-11-18T02:47:33.673Z,0
2016-11-18T02:48:42.305Z,0
2016-11-18T02:49:51.285Z,0
2016-11-18T02:51:00.220Z,0
2016-11-18T02:52:09.162Z,0
2016-11-18T02:53:18.101Z,0
2016-11-18T02:54:26.725Z,0
2016-11-18T02:55:35.721Z,0
2016-11-18T02:56:44.673Z,0
2016-11-18T02:57:53.624Z,0
2016-11-18T02:59:02.887Z,0
2016-11-18T03:00:11.829Z,0
2016-11-18T03:01:21.124Z,0
2016-11-18T03:02:30.054Z,0
2016-11-18T03:03:38.990Z,0
2016-11-18T03:04:48.571Z,0
2016-11-18T03:05:57.844Z,0
2016-11-18T03:07:07.817Z,0
2016-11-18T03:08:17.069Z,0
2016-11-18T03:09:25.688Z,0
2016-11-18T03:10:34.624Z,0
2016-11-18T03:11:43.237Z,0
2016-11-18T03:12:52.479Z,0
2016-11-18T03:14:01.096Z,0
2016-11-18T03:15:10.048Z,0
2016-11-18T03:16:18.988Z,0
2016-11-18T03:17:28.246Z,0
2016-11-18T03:18:37.637Z,0
2016-11-18T03:19:46.562Z,0
2016-11-18T03:20:55.497Z,0
2016-11-18T03:22:05.094Z,0
2016-11-18T03:23:14.363Z,0
2016-11-18T03:24:23.657Z,0
2016-11-18T03:25:32.603Z,0
2016-11-18T03:26:41.536Z,0
2016-11-18T03:27:50.154Z,0
2016-11-18T03:28:59.437Z,0
2016-11-18T03:30:09.070Z,0
2016-11-18T03:31:17.693Z,0
2016-11-18T03:32:26.641Z,0
2016-11-18T03:33:35.587Z,0
2016-11-18T03:34:44.564Z,0
2016-11-18T03:35:53.570Z,0
2016-11-18T03:37:02.504Z,0
2016-11-18T03:38:11.149Z,0
2016-11-18T03:39:20.087Z,0
2016-11-18T03:40:29.399Z,0
2016-11-18T03:41:38.640Z,0
2016-11-18T03:42:47.580Z,0
2016-11-18T03:43:56.200Z,0
2016-11-18T03:45:04.816Z,0
2016-11-18T03:46:13.427Z,0
2016-11-18T03:47:23.097Z,0
2016-11-18T03:48:32.354Z,0
2016-11-18T03:49:41.293Z,0
2016-11-18T03:50:49.917Z,0
2016-11-18T03:51:58.855Z,0
2016-11-18T03:53:08.255Z,0
2016-11-18T03:54:16.861Z,0
2016-11-18T03:55:25.480Z,0
2016-11-18T03:56:34.781Z,0
2016-11-18T03:57:43.404Z,0
2016-11-18T03:58:52.679Z,0
2016-11-18T04:00:01.964Z,0
2016-11-18T04:01:10.586Z,0
2016-11-18T04:02:19.522Z,0
2016-11-18T04:03:28.466Z,0
2016-11-18T04:04:38.111Z,0
2016-11-18T04:05:47.058Z,0
2016-11-18T04:06:55.996Z,0
2016-11-18T04:08:04.941Z,0
2016-11-18T04:09:13.557Z,0
2016-11-18T04:10:22.223Z,0
2016-11-18T04:11:31.158Z,0
2016-11-18T04:12:40.094Z,0
2016-11-18T04:13:49.037Z,0
2016-11-18T04:14:57.656Z,0
2016-11-18T04:16:06.641Z,0
2016-11-18T04:17:15.590Z,0
2016-11-18T04:18:24.221Z,0
2016-11-18T04:19:33.485Z,0
2016-11-18T04:20:42.107Z,0
2016-11-18T04:21:51.155Z,0
2016-11-18T04:23:00.444Z,0
2016-11-18T04:24:09.384Z,0
2016-11-18T04:25:18.637Z,0
2016-11-18T04:26:27.886Z,0
2016-11-18T04:27:36.889Z,0
2016-11-18T04:28:46.151Z,0
2016-11-18T04:29:55.079Z,0
2016-11-18T04:31:04.995Z,0
2016-11-18T04:32:13.604Z,0
2016-11-18T04:33:22.935Z,0
2016-11-18T04:34:31.878Z,0
2016-11-18T04:35:40.501Z,0
2016-11-18T04:36:49.442Z,0
2016-11-18T04:37:58.407Z,0
2016-11-18T04:39:07.385Z,0
2016-11-18T04:40:16.323Z,0
2016-11-18T04:41:24.936Z,0
2016-11-18T04:42:33.872Z,0
2016-11-18T04:43:42.833Z,0
2016-11-18T04:44:51.835Z,0
2016-11-18T04:46:00.452Z,0
2016-11-18T04:47:09.060Z,0
2016-11-18T04:48:17.666Z,0
2016-11-18T04:49:26.598Z,0
2016-11-18T04:50:35.573Z,0
2016-11-18T04:51:44.838Z,0
2016-11-18T04:52:53.798Z,0
2016-11-18T04:54:03.432Z,0
2016-11-18T04:55:12.055Z,0
2016-11-18T04:56:21.789Z,0
2016-11-18T04:57:30.410Z,0
2016-11-18T04:58:39.357Z,0
2016-11-18T04:59:48.302Z,0
2016-11-18T05:00:57.260Z,0
2016-11-18T05:02:06.601Z,0
2016-11-18T05:03:16.209Z,0
2016-11-18T05:04:25.156Z,0
2016-11-18T05:05:34.094Z,0
2016-11-18T05:06:43.023Z,0
2016-11-18T05:07:52.076Z,0
2016-11-18T05:09:01.347Z,0
2016-11-18T05:10:10.615Z,0
2016-11-18T05:11:19.537Z,0
2016-11-18T05:12:28.787Z,0
2016-11-18T05:13:38.503Z,0
2016-11-18T05:14:48.101Z,0
2016-11-18T05:15:57.045Z,0
2016-11-18T05:17:06.303Z,0
2016-11-18T05:18:14.909Z,0
2016-11-18T05:19:24.620Z,0
2016-11-18T05:20:33.254Z,0
2016-11-18T05:21:41.869Z,0
2016-11-18T05:22:50.818Z,0
2016-11-18T05:23:59.445Z,0
2016-11-18T05:25:08.452Z,0
2016-11-18T05:26:17.714Z,0
2016-11-18T05:27:26.650Z,0
2016-11-18T05:28:35.264Z,0
2016-11-18T05:29:44.198Z,0
2016-11-18T05:30:52.874Z,0
2016-11-18T05:32:02.164Z,0
2016-11-18T05:33:10.772Z,0
2016-11-18T05:34:20.023Z,0
2016-11-18T05:35:29.291Z,0
2016-11-18T05:36:38.653Z,0
2016-11-18T05:37:47.598Z,0
2016-11-18T05:38:56.210Z,0
2016-11-18T05:40:05.139Z,0
2016-11-18T05:41:14.079Z,0
2016-11-18T05:42:23.702Z,0
2016-11-18T05:43:32.641Z,0
2016-11-18T05:44:41.606Z,0
2016-11-18T05:45:50.225Z,0
2016-11-18T05:46:58.880Z,0
2016-11-18T05:48:07.545Z,0
2016-11-18T05:49:16.491Z,0
2016-11-18T05:50:25.768Z,0
2016-11-18T05:51:35.021Z,0
2016-11-18T05:52:43.635Z,0
2016-11-18T05:53:52.933Z,0
2016-11-18T05:55:01.541Z,0
2016-11-18T05:56:11.130Z,0
2016-11-18T05:57:20.128Z,0
2016-11-18T05:58:28.745Z,0
2016-11-18T06:01:00.733Z,0
2016-11-18T06:02:09.335Z,0
2016-11-18T06:03:18.266Z,0
2016-11-18T06:04:27.514Z,0
2016-11-18T06:06:40.347Z,0
2016-11-18T06:07:48.959Z,0
2016-11-18T06:08:57.905Z,0
2016-11-18T06:10:06.841Z,0
2016-11-18T06:11:15.560Z,0
2016-11-18T06:12:24.825Z,0
2016-11-18T06:13:34.067Z,0
2016-11-18T06:14:43.338Z,0
2016-11-18T06:15:52.274Z,0
2016-11-18T06:17:01.272Z,0
2016-11-18T06:18:09.883Z,0
2016-11-18T06:19:19.146Z,0
2016-11-18T06:20:28.411Z,0
2016-11-18T06:21:37.677Z,0
2016-11-18T06:22:46.365Z,0
2016-11-18T06:23:55.296Z,0
2016-11-18T06:25:04.243Z,0
2016-11-18T06:26:13.510Z,0
2016-11-18T06:27:22.450Z,0
2016-11-18T06:28:31.426Z,0
2016-11-18T06:29:40.040Z,0
2016-11-18T06:30:49.641Z,0
2016-11-18T06:31:58.265Z,0
2016-11-18T06:33:06.876Z,0
2016-11-18T06:34:16.168Z,0
2016-11-18T06:35:25.753Z,0
2016-11-18T06:36:34.682Z,0
2016-11-18T06:37:43.939Z,0
2016-11-18T06:38:52.870Z,0
2016-11-18T06:40:02.240Z,0
2016-11-18T06:41:10.864Z,0
2016-11-18T06:42:19.839Z,0
2016-11-18T06:43:28.794Z,0
2016-11-18T06:44:37.399Z,0
2016-11-18T06:45:46.365Z,0
2016-11-18T06:46:55.647Z,0
2016-11-18T06:48:04.596Z,0
2016-11-18T06:49:13.879Z,0
2016-11-18T06:50:22.817Z,0
2016-11-18T06:51:32.114Z,0
2016-11-18T06:52:41.113Z,0
2016-11-18T06:53:49.740Z,5
2016-11-18T06:54:58.359Z,5
2016-11-18T06:56:07.287Z,5
2016-11-18T06:57:16.844Z,5
2016-11-18T06:58:25.785Z,10
2016-11-18T06:59:34.392Z,10
2016-11-18T07:00:43.332Z,10
2016-11-18T07:01:52.584Z,15
2016-11-18T07:03:02.275Z,15
2016-11-18T07:04:10.904Z,15
2016-11-18T07:05:19.845Z,20
2016-11-18T07:06:28.796Z,20
2016-11-18T07:07:37.407Z,25
2016-11-18T07:08:46.059Z,25
2016-11-18T07:09:54.993Z,25
2016-11-18T07:11:03.942Z,30
2016-11-18T07:12:13.231Z,30
2016-11-18T07:13:21.827Z,30
2016-11-18T07:14:30.488Z,35
2016-11-18T07:15:40.082Z,35
2016-11-18T07:16:49.028Z,40
2016-11-18T07:17:57.962Z,45
2016-11-18T07:19:07.229Z,50
2016-11-18T07:20:16.928Z,60
2016-11-18T07:21:25.868Z,65
2016-11-18T07:22:35.123Z,75
2016-11-18T07:23:44.059Z,80
2016-11-18T07:24:53.625Z,90
2016-11-18T07:26:02.878Z,95
2016-11-18T07:27:11.493Z,95
2016-11-18T07:28:20.112Z,95
2016-11-18T07:29:29.054Z,95
2016-11-18T07:30:38.331Z,100
2016-11-18T07:31:47.321Z,95
2016-11-18T07:32:55.934Z,95
2016-11-18T07:34:04.550Z,95
2016-11-18T07:35:13.490Z,95
2016-11-18T07:36:22.762Z,90
2016-11-18T07:37:31.751Z,90
2016-11-18T07:38:41.017Z,85
2016-11-18T07:39:49.964Z,80
2016-11-18T07:40:58.943Z,75
2016-11-18T07:42:08.861Z,75
2016-11-18T07:43:17.575Z,80
2016-11-18T07:44:26.500Z,75
2016-11-18T07:45:35.458Z,70
2016-11-18T07:46:44.728Z,70
2016-11-18T07:47:53.664Z,70
2016-11-18T07:49:02.695Z,80
2016-11-18T07:50:11.640Z,95
2016-11-18T07:51:21.235Z,90
2016-11-18T07:52:30.489Z,90
2016-11-18T07:53:39.435Z,110
2016-11-18T07:54:48.846Z,120
2016-11-18T07:55:58.134Z,105
2016-11-18T07:57:07.062Z,100
2016-11-18T07:58:15.683Z,90
2016-11-18T07:59:24.612Z,85
2016-11-18T08:00:33.915Z,110
2016-11-18T08:01:42.554Z,100
2016-11-18T08:02:51.817Z,105
2016-11-18T08:04:01.084Z,110
2016-11-18T08:05:10.016Z,120
2016-11-18T08:06:18.988Z,120
2016-11-18T08:07:27.604Z,105
2016-11-18T08:08:36.573Z,135
2016-11-18T08:09:46.167Z,155
2016-11-18T08:10:55.094Z,165
2016-11-18T08:12:04.087Z,155
2016-11-18T08:13:13.032Z,140
2016-11-18T08:14:21.988Z,155
2016-11-18T08:15:30.934Z,145
2016-11-18T08:16:39.534Z,145
2016-11-18T08:17:48.528Z,155
2016-11-18T08:18:57.450Z,155
2016-11-18T08:20:06.377Z,165
2016-11-18T08:21:15.639Z,145
2016-11-18T08:22:24.572Z,165
2016-11-18T08:23:33.995Z,195
2016-11-18T08:24:42.936Z,220
2016-11-18T08:25:52.520Z,260
2016-11-18T08:27:01.134Z,260
2016-11-18T08:28:09.770Z,300
2016-11-18T08:29:19.098Z,245
2016-11-18T08:30:28.038Z,210
2016-11-18T08:31:36.700Z,245
2016-11-18T08:32:46.607Z,250
2016-11-18T08:33:55.218Z,265
2016-11-18T08:35:04.835Z,270
2016-11-18T08:36:14.097Z,265
2016-11-18T08:37:22.709Z,300
2016-11-18T08:38:31.660Z,315
2016-11-18T08:39:40.280Z,320
2016-11-18T08:40:49.878Z,340
2016-11-18T08:41:58.828Z,355
2016-11-18T08:43:08.414Z,305
2016-11-18T08:44:17.048Z,285
2016-11-18T08:45:25.672Z,290
2016-11-18T08:46:35.278Z,280
2016-11-18T08:47:43.888Z,300
2016-11-18T08:48:52.839Z,300
2016-11-18T08:50:01.784Z,290
2016-11-18T08:51:10.735Z,300
2016-11-18T08:52:20.151Z,305
2016-11-18T08:53:29.654Z,340
2016-11-18T08:54:38.928Z,425
2016-11-18T08:55:47.561Z,490
2016-11-18T08:56:56.530Z,400
2016-11-18T08:58:05.516Z,325
2016-11-18T08:59:14.492Z,320
2016-11-18T09:00:23.442Z,320
2016-11-18T09:01:33.084Z,305
2016-11-18T09:02:42.405Z,260
2016-11-18T09:03:51.713Z,290
2016-11-18T09:05:00.644Z,310
2016-11-18T09:06:09.586Z,330
2016-11-18T09:07:18.522Z,355
2016-11-18T09:08:27.827Z,350
2016-11-18T09:09:36.880Z,325
2016-11-18T09:10:46.180Z,280
2016-11-18T09:11:55.151Z,240
2016-11-18T09:13:03.779Z,245
2016-11-18T09:14:12.753Z,240
2016-11-18T09:15:21.382Z,235
2016-11-18T09:16:30.640Z,240
2016-11-18T09:17:39.282Z,270
2016-11-18T09:18:47.903Z,295
2016-11-18T09:19:57.133Z,350
2016-11-18T09:21:06.437Z,395
2016-11-18T09:22:15.724Z,440
2016-11-18T09:23:25.003Z,515
2016-11-18T09:24:33.970Z,550
2016-11-18T09:25:42.924Z,580
2016-11-18T09:26:51.872Z,610
2016-11-18T09:28:01.139Z,625
2016-11-18T09:29:10.410Z,615
2016-11-18T09:30:19.674Z,605
2016-11-18T09:31:29.279Z,605
2016-11-18T09:32:38.544Z,575
2016-11-18T09:33:47.804Z,530
2016-11-18T09:34:56.431Z,445
2016-11-18T09:36:06.017Z,395
2016-11-18T09:37:14.739Z,385
2016-11-18T09:38:24.647Z,325
2016-11-18T09:39:33.627Z,245
2016-11-18T09:40:42.567Z,300
2016-11-18T09:41:51.190Z,350
2016-11-18T09:42:59.909Z,350
2016-11-18T09:44:09.472Z,345
2016-11-18T09:45:18.098Z,315
2016-11-18T09:46:27.063Z,290
2016-11-18T09:47:36.011Z,265
2016-11-18T09:48:45.406Z,260
2016-11-18T09:49:54.679Z,260
2016-11-18T09:51:03.963Z,315
2016-11-18T09:52:12.564Z,315
2016-11-18T09:53:21.825Z,285
2016-11-18T09:54:31.495Z,290
2016-11-18T09:55:40.438Z,280
2016-11-18T09:56:49.391Z,255
2016-11-18T09:57:58.652Z,240
2016-11-18T09:59:07.930Z,240
2016-11-18T10:00:17.230Z,270
2016-11-18T10:01:26.492Z,240
2016-11-18T10:02:35.420Z,220
2016-11-18T10:03:44.036Z,230
2016-11-18T10:04:52.678Z,270
2016-11-18T10:06:01.725Z,300
2016-11-18T10:07:10.343Z,340
2016-11-18T10:08:19.613Z,320
2016-11-18T10:09:28.564Z,290
2016-11-18T10:10:37.832Z,295
2016-11-18T10:11:47.146Z,270
2016-11-18T10:12:55.762Z,240
2016-11-18T10:14:04.708Z,275
2016-11-18T10:15:13.652Z,270
2016-11-18T10:16:22.264Z,215
2016-11-18T10:17:31.645Z,220
2016-11-18T10:18:40.581Z,235
2016-11-18T10:19:49.533Z,305
2016-11-18T10:20:58.146Z,350
2016-11-18T10:22:06.760Z,340
2016-11-18T10:23:15.720Z,355
2016-11-18T10:24:25.286Z,395
2016-11-18T10:25:34.213Z,430
2016-11-18T10:26:43.147Z,445
2016-11-18T10:27:52.749Z,455
2016-11-18T10:29:01.400Z,470
2016-11-18T10:30:10.010Z,495
2016-11-18T10:31:19.269Z,505
2016-11-18T10:32:28.254Z,490
2016-11-18T10:33:37.206Z,465
2016-11-18T10:34:46.214Z,445
2016-11-18T10:35:55.173Z,465
2016-11-18T10:37:04.435Z,495
2016-11-18T10:38:13.381Z,495
2016-11-18T10:39:22.998Z,535
2016-11-18T10:40:31.992Z,490
2016-11-18T10:41:40.629Z,455
2016-11-18T10:42:49.265Z,440
2016-11-18T10:43:58.254Z,445
2016-11-18T10:45:06.878Z,460
2016-11-18T10:46:15.830Z,480
2016-11-18T10:47:24.768Z,460
2016-11-18T10:48:34.037Z,430
2016-11-18T10:49:42.975Z,410
2016-11-18T10:50:51.593Z,410
2016-11-18T10:52:01.184Z,430
2016-11-18T10:53:10.117Z,430
2016-11-18T10:54:19.069Z,440
2016-11-18T10:55:28.039Z,455
2016-11-18T10:56:36.967Z,470
2016-11-18T10:57:46.253Z,480
2016-11-18T10:58:55.182Z,485
2016-11-18T11:00:04.118Z,485
2016-11-18T11:01:13.057Z,465
2016-11-18T11:02:21.990Z,440
2016-11-18T11:03:30.708Z,455
2016-11-18T11:04:39.955Z,500
2016-11-18T11:05:48.561Z,510
2016-11-18T11:06:57.493Z,485
2016-11-18T11:08:06.823Z,470
2016-11-18T11:09:15.897Z,455
2016-11-18T11:10:24.846Z,455
2016-11-18T11:11:33.809Z,480
2016-11-18T11:12:42.429Z,500
2016-11-18T11:13:51.066Z,520
2016-11-18T11:15:00.454Z,515
2016-11-18T11:16:09.424Z,475
2016-11-18T11:17:18.056Z,425
2016-11-18T11:18:27.003Z,370
2016-11-18T11:19:35.953Z,340
2016-11-18T11:20:45.010Z,360
2016-11-18T11:21:53.959Z,345
2016-11-18T11:23:02.897Z,475
2016-11-18T11:24:11.848Z,510
2016-11-18T11:25:20.465Z,500
2016-11-18T11:26:29.431Z,505
2016-11-18T11:27:38.688Z,460
2016-11-18T11:28:47.640Z,410
2016-11-18T11:29:56.597Z,375
2016-11-18T11:31:05.869Z,415
2016-11-18T11:32:15.184Z,445
2016-11-18T11:33:24.151Z,420
2016-11-18T11:34:33.131Z,470
2016-11-18T11:35:42.407Z,490
2016-11-18T11:36:51.074Z,490
2016-11-18T11:37:59.762Z,480
2016-11-18T11:39:09.365Z,415
2016-11-18T11:40:18.315Z,415
2016-11-18T11:41:27.264Z,370
2016-11-18T11:42:36.594Z,380
2016-11-18T11:43:45.316Z,370
2016-11-18T11:44:54.248Z,420
2016-11-18T11:46:03.525Z,515
2016-11-18T11:47:12.423Z,505
2016-11-18T11:48:21.682Z,440
2016-11-18T11:49:31.334Z,440
2016-11-18T11:50:40.600Z,410
2016-11-18T11:51:49.884Z,425
2016-11-18T11:52:58.829Z,430
2016-11-18T11:54:07.799Z,420
2016-11-18T11:55:17.507Z,405
2016-11-18T11:56:26.127Z,375
2016-11-18T11:57:34.753Z,355
2016-11-18T11:58:43.400Z,345
2016-11-18T11:59:52.005Z,345
2016-11-18T12:01:01.052Z,365
2016-11-18T12:02:10.009Z,385
2016-11-18T12:03:19.276Z,380
2016-11-18T12:04:28.208Z,400
2016-11-18T12:05:36.844Z,420
2016-11-18T12:06:46.202Z,400
2016-11-18T12:07:55.481Z,380
2016-11-18T12:09:04.106Z,340
2016-11-18T12:10:13.381Z,320
2016-11-18T12:11:22.626Z,325
2016-11-18T12:12:32.040Z,330
2016-11-18T12:13:41.624Z,330
2016-11-18T12:14:50.245Z,350
2016-11-18T12:15:59.175Z,330
2016-11-18T12:17:08.451Z,325
2016-11-18T12:18:18.169Z,395
2016-11-18T12:19:27.125Z,340
2016-11-18T12:20:36.392Z,315
2016-11-18T12:21:45.343Z,325
2016-11-18T12:22:53.967Z,325
2016-11-18T12:24:03.669Z,325
2016-11-18T12:25:13.260Z,325
2016-11-18T12:26:21.881Z,325
2016-11-18T12:27:31.155Z,340
2016-11-18T12:28:40.105Z,330
2016-11-18T12:29:48.763Z,385
2016-11-18T12:30:57.381Z,320
2016-11-18T12:32:06.972Z,355
2016-11-18T12:33:16.233Z,390
2016-11-18T12:34:25.502Z,355
2016-11-18T12:35:34.533Z,350
2016-11-18T12:36:43.152Z,365
2016-11-18T12:37:52.101Z,370
2016-11-18T12:39:00.723Z,385
2016-11-18T12:40:09.681Z,340
2016-11-18T12:41:18.353Z,330
2016-11-18T12:42:26.967Z,360
2016-11-18T12:43:35.907Z,290
2016-11-18T12:44:44.845Z,270
2016-11-18T12:45:54.126Z,270
2016-11-18T12:47:03.451Z,255
2016-11-18T12:48:12.070Z,245
2016-11-18T12:49:20.998Z,250
2016-11-18T12:50:29.623Z,270
2016-11-18T12:51:38.556Z,315
2016-11-18T12:52:47.524Z,320
2016-11-18T12:53:56.803Z,320
2016-11-18T12:55:05.411Z,320
2016-11-18T12:56:14.360Z,285
2016-11-18T12:57:22.974Z,290
2016-11-18T12:58:32.048Z,290
2016-11-18T12:59:40.993Z,270
2016-11-18T13:00:49.939Z,285
2016-11-18T13:01:58.872Z,285
2016-11-18T13:03:07.800Z,265
2016-11-18T13:04:17.118Z,245
2016-11-18T13:05:26.724Z,225
2016-11-18T13:06:35.349Z,230
2016-11-18T13:07:44.614Z,240
2016-11-18T13:08:53.552Z,270
2016-11-18T13:10:03.263Z,325
2016-11-18T13:11:11.961Z,290
2016-11-18T13:12:20.577Z,270
2016-11-18T13:13:29.832Z,265
2016-11-18T13:14:39.125Z,255
2016-11-18T13:15:48.164Z,265
2016-11-18T13:16:56.785Z,295
2016-11-18T13:18:05.749Z,275
2016-11-18T13:19:14.709Z,275
2016-11-18T13:20:23.648Z,280
2016-11-18T13:21:33.275Z,275
2016-11-18T13:22:42.228Z,265
2016-11-18T13:23:51.490Z,260
2016-11-18T13:25:00.115Z,265
2016-11-18T13:26:09.718Z,275
2016-11-18T13:27:18.998Z,285
2016-11-18T13:28:27.940Z,295
2016-11-18T13:29:36.884Z,310
2016-11-18T13:30:45.523Z,305
2016-11-18T13:31:54.468Z,295
2016-11-18T13:33:03.195Z,275
2016-11-18T13:34:12.134Z,255
2016-11-18T13:35:20.751Z,255
2016-11-18T13:36:30.014Z,255
2016-11-18T13:37:38.962Z,265
2016-11-18T13:38:47.627Z,255
2016-11-18T13:39:56.895Z,205
2016-11-18T13:41:05.519Z,155
2016-11-18T13:42:14.453Z,135
2016-11-18T13:43:23.071Z,120
2016-11-18T13:44:31.774Z,105
2016-11-18T13:45:41.029Z,80
2016-11-18T13:46:50.297Z,65
2016-11-18T13:47:58.918Z,60
2016-11-18T13:49:07.528Z,55
2016-11-18T13:50:17.149Z,60
2016-11-18T13:51:26.725Z,75
2016-11-18T13:52:35.392Z,75
2016-11-18T13:53:44.337Z,85
2016-11-18T13:54:53.582Z,70
2016-11-18T13:56:02.251Z,55
2016-11-18T13:57:11.203Z,45
2016-11-18T13:58:20.485Z,60
2016-11-18T13:59:29.425Z,80
2016-11-18T14:00:38.359Z,100
2016-11-18T14:01:47.023Z,130
2016-11-18T14:02:55.961Z,160
2016-11-18T14:04:04.563Z,160
2016-11-18T14:05:13.177Z,120
2016-11-18T14:06:21.785Z,75
2016-11-18T14:07:31.069Z,50
2016-11-18T14:08:40.349Z,40
2016-11-18T14:09:48.972Z,45
2016-11-18T14:10:57.628Z,50
2016-11-18T14:12:06.890Z,45
2016-11-18T14:13:15.605Z,40
2016-11-18T14:14:24.877Z,40
2016-11-18T14:15:34.440Z,30
2016-11-18T14:16:43.398Z,35
2016-11-18T14:17:52.339Z,50
2016-11-18T14:19:01.372Z,55
2016-11-18T14:20:09.988Z,40
2016-11-18T14:21:18.921Z,40
2016-11-18T14:22:27.536Z,45
2016-11-18T14:23:36.464Z,40
2016-11-18T14:24:45.447Z,40
2016-11-18T14:25:54.052Z,60
2016-11-18T14:27:03.011Z,100
2016-11-18T14:28:12.251Z,150
2016-11-18T14:29:20.875Z,185
2016-11-18T14:30:30.176Z,175
2016-11-18T14:31:39.432Z,155
2016-11-18T14:32:48.053Z,130
2016-11-18T14:33:56.996Z,125
2016-11-18T14:35:05.598Z,120
2016-11-18T14:36:15.285Z,120
2016-11-18T14:37:24.872Z,115
2016-11-18T14:38:33.468Z,110
2016-11-18T14:39:42.750Z,100
2016-11-18T14:40:51.688Z,90
2016-11-18T14:42:00.691Z,95
2016-11-18T14:43:09.619Z,95
2016-11-18T14:44:18.569Z,95
2016-11-18T14:45:27.511Z,90
2016-11-18T14:46:36.781Z,85
2016-11-18T14:47:45.733Z,85
2016-11-18T14:48:54.696Z,85
2016-11-18T14:50:03.962Z,85
2016-11-18T14:51:12.925Z,85
2016-11-18T14:52:22.182Z,80
2016-11-18T14:53:31.805Z,80
2016-11-18T14:54:40.737Z,75
2016-11-18T14:55:49.991Z,75
2016-11-18T14:56:59.238Z,70
2016-11-18T14:58:08.496Z,70
2016-11-18T14:59:17.543Z,65
2016-11-18T15:00:26.161Z,65
2016-11-18T15:01:35.089Z,60
2016-11-18T15:02:44.027Z,60
2016-11-18T15:03:52.631Z,55
2016-11-18T15:05:01.676Z,55
2016-11-18T15:06:10.295Z,50
2016-11-18T15:07:19.230Z,50
2016-11-18T15:08:27.837Z,50
2016-11-18T15:09:36.446Z,45
2016-11-18T15:10:45.436Z,40
2016-11-18T15:11:54.062Z,40
2016-11-18T15:13:02.700Z,40
2016-11-18T15:14:11.633Z,40
2016-11-18T15:15:20.251Z,35
2016-11-18T15:16:29.293Z,35
2016-11-18T15:17:38.557Z,30
2016-11-18T15:18:47.493Z,25
2016-11-18T15:19:56.136Z,25
2016-11-18T15:21:05.410Z,25
2016-11-18T15:22:15.054Z,20
2016-11-18T15:23:23.998Z,20
2016-11-18T15:24:32.927Z,15
2016-11-18T15:25:41.549Z,15
2016-11-18T15:26:50.806Z,15
2016-11-18T15:28:00.534Z,10
2016-11-18T15:29:09.138Z,10
2016-11-18T15:30:18.070Z,10
2016-11-18T15:31:27.015Z,5
2016-11-18T15:32:35.630Z,5
2016-11-18T15:33:44.341Z,5
2016-11-18T15:34:53.283Z,5
2016-11-18T15:36:02.547Z,0
2016-11-18T15:37:12.152Z,0
2016-11-18T15:38:21.755Z,0
2016-11-18T15:39:30.412Z,0
2016-11-18T15:40:39.031Z,0
2016-11-18T15:41:47.959Z,0
2016-11-18T15:42:56.560Z,0
2016-11-18T15:44:05.496Z,0
2016-11-18T15:45:14.838Z,0
2016-11-18T15:46:24.117Z,0
2016-11-18T15:47:33.054Z,0
2016-11-18T15:48:41.664Z,0
2016-11-18T15:49:50.913Z,0
2016-11-18T15:51:00.307Z,0
2016-11-18T15:52:09.303Z,0
2016-11-18T15:53:18.277Z,0
2016-11-18T15:54:27.213Z,0
2016-11-18T15:55:36.801Z,0
2016-11-18T15:56:46.197Z,0
2016-11-18T15:57:55.125Z,0
2016-11-18T15:59:04.399Z,0
2016-11-18T16:00:13.014Z,0
2016-11-18T16:01:21.939Z,0
2016-11-18T16:02:31.225Z,0
2016-11-18T16:03:40.181Z,0
2016-11-18T16:04:49.439Z,0
2016-11-18T16:05:58.375Z,0
2016-11-18T16:07:07.627Z,0
2016-11-18T16:08:16.607Z,0
2016-11-18T16:09:26.200Z,0
2016-11-18T16:10:34.798Z,0
2016-11-18T16:11:43.728Z,0
2016-11-18T16:12:52.344Z,0
2016-11-18T16:14:01.014Z,0
2016-11-18T16:15:09.961Z,0
2016-11-18T16:16:18.566Z,0
2016-11-18T16:17:27.175Z,0
2016-11-18T16:18:36.112Z,0
2016-11-18T16:19:45.744Z,0
2016-11-18T16:20:54.680Z,0
2016-11-18T16:22:03.303Z,0
2016-11-18T16:23:12.559Z,0
2016-11-18T16:24:21.187Z,0
2016-11-18T16:25:30.497Z,0
2016-11-18T16:26:39.435Z,0
2016-11-18T16:27:48.366Z,0
2016-11-18T16:28:56.969Z,0
2016-11-18T16:30:05.897Z,0